To NAV CANADA Home Page Login to a new session Search on AWWS site Disclaimer Vers la page française équivalente Tips FAQ What's new on the site To the Forecasts and Observations / NOTAM section To "File a Flight Plan" website Publications and other links Update of the User's profile FIC Telephone Numbers My Weather Data Folder Route Weather Data Regional Weather Data Local Weather Data To the Forecasts and Observations / NOTAM section
Request Generated 07/30/2021 at 06:27:54 UTC . Weather information available at that time is displayed.

METAR/TAF

ST. JOHN'S INTL/NL    

METAR CYYT 300600Z 28011KT 15SM SKC 13/11 A2993 RMK SLP139=
METAR CYYT 300500Z 29013KT 15SM SKC 13/11 A2992 RMK SLP136=
METAR CYYT 300400Z 28014G19KT 15SM SKC 13/11 A2991 RMK SLP130=

TAF CYYT 300538Z 3006/3106 28015KT P6SM SKC
BECMG 3006/3008 27012KT
BECMG 3011/3013 24005KT
FM301700 19012KT P6SM SCT200
BECMG 3019/3021 19010G20KT
FM310100 18012G22KT P6SM -SHRA OVC060
FM310300 18018G28KT 4SM SHRA BR BKN010 OVC040 PROB40 3103/3106
BKN006
RMK NXT FCST BY 301200Z=
Your time UTC time
Weather data provided by Environment Canada and NAV CANADA